Time;durP1;ratioP1;P1;durP2;ratioP2;P2;SDS_P1;SDS_P2;PMS_P1;PMS_P2;Temp;Humidity;BMP_temperature;BMP_pressure;BME280_temperature;BME280_humidity;BME280_pressure;Samples;Min_cycle;Max_cycle;Signal;HPM_P1;HPM_P2
2022/08/11 00:02:09;;;;;;;3.13;2.83;;;20.20;99.90;;;;;;4959227;28;20337;-94
2022/08/11 00:04:44;;;;;;;3.97;3.17;;;20.30;99.90;;;;;;4959594;28;20236;-95
2022/08/11 00:07:18;;;;;;;4.17;2.97;;;20.40;99.90;;;;;;4959776;28;20216;-95
2022/08/11 00:09:52;;;;;;;3.93;3.30;;;20.50;99.90;;;;;;4959688;28;20212;-95
2022/08/11 00:12:29;;;;;;;4.07;3.47;;;20.60;99.90;;;;;;4959558;28;20223;-95
2022/08/11 00:15:03;;;;;;;5.90;3.23;;;20.60;99.90;;;;;;4960030;28;20212;-96
2022/08/11 00:17:38;;;;;;;4.77;3.70;;;20.70;99.90;;;;;;4960365;28;20259;-94
2022/08/11 00:20:13;;;;;;;5.90;3.77;;;20.60;99.90;;;;;;4956244;28;20223;-95
2022/08/11 00:22:50;;;;;;;4.10;3.30;;;20.60;99.90;;;;;;4950872;29;20279;-95
2022/08/11 00:25:22;;;;;;;5.77;5.27;;;20.50;99.90;;;;;;4941239;29;20218;-95
2022/08/11 00:27:56;;;;;;;4.90;4.40;;;20.70;99.90;;;;;;4941663;29;20311;-95
2022/08/11 00:30:39;;;;;;;9.07;5.10;;;20.90;99.90;;;;;;4941182;29;20209;-95
2022/08/11 00:33:11;;;;;;;5.00;4.53;;;21.30;99.90;;;;;;4940102;29;20228;-94
2022/08/11 00:35:42;;;;;;;5.53;4.20;;;21.50;99.90;;;;;;4943794;28;20212;-95
2022/08/11 00:38:30;;;;;;;4.20;3.53;;;21.70;99.90;;;;;;4945341;28;20220;-95
2022/08/11 00:41:12;;;;;;;5.53;4.17;;;22.00;99.90;;;;;;4941718;29;20211;-93
2022/08/11 00:44:05;;;;;;;4.47;3.73;;;22.40;99.90;;;;;;4943526;29;20218;-93
2022/08/11 00:46:46;;;;;;;3.30;2.63;;;22.80;99.90;;;;;;4944932;29;20208;-94
2022/08/11 00:49:31;;;;;;;2.57;2.27;;;22.70;99.90;;;;;;4945348;29;20323;-93
2022/08/11 00:52:18;;;;;;;2.60;2.40;;;22.80;99.90;;;;;;4944153;29;20208;-93
2022/08/11 00:55:29;;;;;;;2.93;2.53;;;23.10;99.90;;;;;;4943350;28;20250;-93
2022/08/11 00:58:51;;;;;;;2.10;1.90;;;23.60;99.90;;;;;;4942346;29;20700;-93
2022/08/11 01:01:40;;;;;;;1.70;1.60;;;23.70;99.90;;;;;;4879041;29;20236;-92
2022/08/11 01:04:43;;;;;;;1.70;1.50;;;23.30;99.90;;;;;;4943812;29;20212;-93
2022/08/11 01:07:59;;;;;;;1.20;1.10;;;22.90;99.90;;;;;;4944703;29;20219;-94
2022/08/11 01:11:05;;;;;;;1.73;1.30;;;23.70;99.90;;;;;;4946553;28;20224;-93
2022/08/11 01:14:20;;;;;;;1.53;1.07;;;23.90;99.90;;;;;;4943922;29;20231;-93
2022/08/11 01:17:29;;;;;;;1.27;1.10;;;24.20;99.90;;;;;;4955018;29;20267;-93
2022/08/11 01:20:26;;;;;;;1.67;1.10;;;24.40;99.90;;;;;;4955878;29;20208;-92
2022/08/11 01:23:50;;;;;;;1.50;1.40;;;25.00;99.90;;;;;;4944284;29;20658;-93
2022/08/11 01:27:03;;;;;;;1.43;1.23;;;25.40;99.90;;;;;;4947739;29;20208;-94
2022/08/11 01:30:29;;;;;;;1.53;1.00;;;24.40;99.90;;;;;;4910535;29;20289;-94
2022/08/11 01:33:52;;;;;;;1.17;1.07;;;22.90;99.90;;;;;;4942210;29;20222;-94
2022/08/11 01:36:57;;;;;;;1.70;1.13;;;22.70;99.90;;;;;;4945557;29;20226;-95
2022/08/11 01:40:16;;;;;;;2.33;1.50;;;22.30;99.90;;;;;;4944433;29;20204;-95
2022/08/11 01:46:19;;;;;;;1.63;1.20;;;21.60;99.90;;;;;;4945064;29;20218;-96
2022/08/11 01:55:14;;;;;;;2.23;1.47;;;21.40;99.90;;;;;;4998675;28;20299;-95
2022/08/11 01:57:54;;;;;;;3.73;1.60;;;21.20;99.90;;;;;;5001866;28;20214;-96
2022/08/11 02:00:30;;;;;;;2.47;1.50;;;21.30;99.90;;;;;;5003267;28;20207;-96
2022/08/11 02:03:13;;;;;;;1.67;1.50;;;20.80;99.90;;;;;;5002312;28;20214;-96
2022/08/11 02:06:00;;;;;;;4.33;1.90;;;20.50;99.90;;;;;;5003044;28;20218;-96
2022/08/11 02:08:49;;;;;;;2.20;1.33;;;20.60;99.90;;;;;;5002676;28;20214;-96
2022/08/11 02:11:32;;;;;;;1.53;1.27;;;20.80;99.90;;;;;;5002345;28;20208;-95
2022/08/11 02:14:19;;;;;;;2.27;1.40;;;20.60;99.90;;;;;;5001610;28;20280;-96
2022/08/11 02:17:12;;;;;;;1.70;1.57;;;20.50;99.90;;;;;;5002727;28;20206;-96
2022/08/11 02:26:08;;;;;;;2.53;1.60;;;20.30;99.90;;;;;;5000024;28;20261;-96
2022/08/11 02:28:56;;;;;;;6.70;1.93;;;20.30;99.90;;;;;;5001840;28;20222;-96
2022/08/11 02:35:00;;;;;;;2.00;1.70;;;20.00;99.90;;;;;;5000695;28;20241;-95
2022/08/11 02:37:45;;;;;;;1.80;1.50;;;20.00;99.90;;;;;;5000124;28;20218;-96
2022/08/11 02:40:30;;;;;;;3.47;2.33;;;20.00;99.90;;;;;;5003678;28;20214;-96
2022/08/11 02:43:15;;;;;;;2.47;1.70;;;20.00;99.90;;;;;;5003477;28;20220;-95
2022/08/11 02:46:22;;;;;;;1.83;1.63;;;19.90;99.90;;;;;;5000518;28;20679;-95
2022/08/11 02:52:16;;;;;;;5.27;1.90;;;19.70;99.90;;;;;;5011320;28;20252;-95
2022/08/11 02:55:00;;;;;;;3.13;2.00;;;19.60;99.90;;;;;;5002372;28;20261;-95
2022/08/11 02:57:40;;;;;;;2.97;1.80;;;19.70;99.90;;;;;;5004108;28;20213;-95
2022/08/11 03:00:14;;;;;;;3.43;1.50;;;19.80;99.90;;;;;;5004165;28;20236;-96
2022/08/11 03:03:09;;;;;;;3.80;1.50;;;19.70;99.90;;;;;;5002459;28;20221;-96
2022/08/11 03:05:54;;;;;;;2.33;1.77;;;19.50;99.90;;;;;;4998740;28;20230;-96
2022/08/11 03:08:38;;;;;;;3.43;2.17;;;19.50;99.90;;;;;;5001790;28;20218;-95
2022/08/11 03:17:16;;;;;;;3.50;1.90;;;19.40;99.90;;;;;;4963004;29;20283;-95
2022/08/11 03:20:01;;;;;;;3.83;2.17;;;19.30;99.90;;;;;;4963027;29;20216;-94
2022/08/11 03:22:38;;;;;;;3.73;1.73;;;19.20;99.90;;;;;;4960138;29;20227;-94
2022/08/11 03:25:19;;;;;;;5.53;2.03;;;19.20;99.90;;;;;;4960965;28;20223;-94
2022/08/11 03:27:58;;;;;;;5.57;1.77;;;19.30;99.90;;;;;;4960836;28;20203;-94
2022/08/11 03:30:48;;;;;;;2.93;1.73;;;19.20;99.90;;;;;;4963361;29;20211;-95
2022/08/11 03:36:40;;;;;;;2.13;1.80;;;19.20;99.90;;;;;;4962342;29;20554;-96
2022/08/11 03:39:46;;;;;;;2.57;1.93;;;19.10;99.90;;;;;;4960258;28;20208;-95
2022/08/11 03:42:32;;;;;;;3.20;1.93;;;19.10;99.90;;;;;;4959855;28;20222;-95
2022/08/11 03:45:23;;;;;;;3.17;2.07;;;19.00;99.90;;;;;;4960783;28;20207;-95
2022/08/11 03:48:10;;;;;;;3.43;1.90;;;19.00;99.90;;;;;;4960943;29;20215;-95
2022/08/11 03:51:04;;;;;;;2.33;1.90;;;18.90;99.90;;;;;;4960255;29;20219;-94
2022/08/11 03:53:55;;;;;;;2.30;2.07;;;18.90;99.90;;;;;;4960940;29;20211;-94
2022/08/11 03:57:10;;;;;;;3.03;2.00;;;18.90;99.90;;;;;;4965265;28;20215;-94
2022/08/11 04:03:06;;;;;;;2.63;2.00;;;18.90;99.90;;;;;;4939323;29;20316;-95
2022/08/11 04:06:10;;;;;;;2.37;2.00;;;18.80;99.90;;;;;;4906874;29;20209;-94
2022/08/11 04:09:16;;;;;;;2.17;1.90;;;18.80;99.90;;;;;;4918441;29;20303;-95
2022/08/11 04:12:26;;;;;;;4.10;2.47;;;18.80;99.90;;;;;;4922495;29;20612;-96
2022/08/11 04:16:02;;;;;;;3.87;2.60;;;18.80;99.90;;;;;;4938927;29;20284;-95
2022/08/11 04:19:16;;;;;;;4.30;2.27;;;18.80;99.90;;;;;;4940308;29;20204;-95
2022/08/11 04:22:21;;;;;;;4.87;2.27;;;18.70;99.90;;;;;;4921530;29;20208;-95
2022/08/11 04:25:30;;;;;;;3.17;2.40;;;18.60;99.90;;;;;;4922193;29;20249;-95
2022/08/11 04:28:37;;;;;;;3.00;2.23;;;18.60;99.90;;;;;;4926387;29;20245;-96
2022/08/11 04:31:38;;;;;;;3.93;2.23;;;18.60;99.90;;;;;;4922767;29;20316;-95
2022/08/11 04:45:28;;;;;;;3.27;2.37;;;18.60;99.90;;;;;;4935119;29;20220;-96
2022/08/11 05:02:11;;;;;;;5.30;2.50;;;18.50;99.90;;;;;;4941479;29;20228;-96
2022/08/11 05:08:37;;;;;;;3.70;2.40;;;18.50;99.90;;;;;;4943666;29;20212;-93
2022/08/11 05:11:49;;;;;;;3.60;2.50;;;18.40;99.90;;;;;;4981208;23;20250;-96
2022/08/11 05:35:36;;;;;;;3.17;2.57;;;18.40;99.90;;;;;;4978090;28;20262;-95
2022/08/11 05:58:40;;;;;;;4.40;2.90;;;18.10;99.90;;;;;;4958975;28;20224;-95
2022/08/11 06:01:14;;;;;;;3.73;2.80;;;18.10;99.90;;;;;;4958907;28;20208;-95
2022/08/11 06:06:41;;;;;;;2.67;2.40;;;18.00;99.90;;;;;;4959065;28;20340;-94
2022/08/11 06:09:16;;;;;;;5.33;2.70;;;18.00;99.90;;;;;;4958587;29;20274;-94
2022/08/11 06:11:48;;;;;;;4.27;2.47;;;17.90;99.90;;;;;;4958960;28;20247;-95
2022/08/11 06:14:23;;;;;;;5.90;2.50;;;17.90;99.90;;;;;;4957511;29;20212;-94
2022/08/11 06:16:59;;;;;;;3.77;2.63;;;17.90;99.90;;;;;;4959781;28;20243;-94
2022/08/11 06:19:36;;;;;;;3.37;2.70;;;17.80;99.90;;;;;;4962973;28;20222;-94
2022/08/11 06:22:11;;;;;;;5.60;3.03;;;17.80;99.90;;;;;;4963002;28;20226;-95
2022/08/11 06:24:51;;;;;;;4.70;2.80;;;17.70;99.90;;;;;;4964749;28;20211;-95
2022/08/11 06:27:25;;;;;;;3.73;2.90;;;17.70;99.90;;;;;;4966943;28;20203;-94
2022/08/11 06:30:00;;;;;;;3.43;2.80;;;17.60;99.90;;;;;;4968755;28;20216;-95
2022/08/11 06:32:39;;;;;;;5.23;2.53;;;17.60;99.90;;;;;;4978134;28;20191;-94
2022/08/11 06:35:20;;;;;;;4.30;2.70;;;17.60;99.90;;;;;;4979286;28;20215;-93
2022/08/11 06:38:06;;;;;;;5.10;3.00;;;17.50;99.90;;;;;;4970173;28;20622;-95
2022/08/11 06:40:42;;;;;;;3.63;2.60;;;17.50;99.90;;;;;;4964272;28;20243;-95
2022/08/11 06:43:25;;;;;;;4.60;3.10;;;17.40;99.90;;;;;;4964060;29;20218;-94
2022/08/11 06:46:07;;;;;;;5.03;3.07;;;17.30;99.90;;;;;;4962715;29;20215;-94
2022/08/11 06:48:47;;;;;;;3.83;3.00;;;17.30;99.90;;;;;;4961172;28;20642;-94
2022/08/11 06:51:17;;;;;;;5.03;3.20;;;17.20;99.90;;;;;;4966229;28;20296;-92
2022/08/11 06:53:55;;;;;;;4.93;3.33;;;17.20;99.90;;;;;;4962512;29;20212;-94
2022/08/11 07:02:49;;;;;;;5.20;3.20;;;17.00;99.90;;;;;;4954783;28;20267;-95
2022/08/11 07:05:25;;;;;;;6.10;2.87;;;17.00;99.90;;;;;;4961156;28;20208;-94
2022/08/11 07:28:53;;;;;;;5.50;3.03;;;16.80;99.90;;;;;;4961252;28;20662;-94
2022/08/11 07:29:16;;;;;;;3.67;2.97;;;16.70;99.90;;;;;;4961161;28;20216;-94
2022/08/11 07:31:52;;;;;;;6.07;3.37;;;16.70;99.90;;;;;;4962969;29;20204;-94
2022/08/11 07:34:29;;;;;;;3.67;3.27;;;16.60;99.90;;;;;;4960198;28;20259;-94
2022/08/11 07:37:05;;;;;;;6.87;3.43;;;16.50;99.90;;;;;;4958748;29;20246;-95
2022/08/11 07:39:40;;;;;;;5.37;3.17;;;16.50;99.90;;;;;;4963501;28;20266;-94
2022/08/11 07:42:14;;;;;;;3.90;3.23;;;16.50;99.90;;;;;;4962855;29;20294;-95
2022/08/11 07:53:25;;;;;;;6.33;3.80;;;16.30;99.90;;;;;;4964095;29;20212;-95
2022/08/11 07:55:59;;;;;;;4.67;3.00;;;16.20;99.90;;;;;;4960054;28;20244;-95
2022/08/11 08:18:37;;;;;;;4.27;3.07;;;15.90;99.90;;;;;;4960566;29;20215;-94
2022/08/11 08:21:14;;;;;;;5.20;3.00;;;15.90;99.90;;;;;;4961237;28;20203;-95
2022/08/11 08:23:48;;;;;;;4.53;2.97;;;15.90;99.90;;;;;;4961200;28;20218;-94
2022/08/11 08:32:11;;;;;;;5.37;2.97;;;15.70;99.90;;;;;;4958618;28;20282;-94
2022/08/11 08:34:43;;;;;;;4.60;2.87;;;15.70;99.90;;;;;;4959518;28;20227;-94
2022/08/11 08:37:18;;;;;;;4.93;3.00;;;15.70;99.90;;;;;;4959057;28;20235;-94
2022/08/11 08:40:15;;;;;;;5.63;3.00;;;15.70;99.90;;;;;;4958218;28;20211;-95
2022/08/11 08:42:54;;;;;;;6.07;2.90;;;15.70;99.90;;;;;;4958125;28;20234;-94
2022/08/11 08:45:26;;;;;;;4.53;3.03;;;15.70;99.90;;;;;;4961479;28;20230;-94
2022/08/11 08:48:02;;;;;;;5.50;3.30;;;15.70;99.90;;;;;;4958921;28;20222;-95
2022/08/11 08:53:28;;;;;;;4.43;2.90;;;15.60;99.90;;;;;;4958390;29;20242;-94
2022/08/11 08:56:03;;;;;;;6.17;3.23;;;15.60;99.90;;;;;;4958344;28;20218;-94
2022/08/11 08:58:38;;;;;;;5.40;3.07;;;15.50;99.90;;;;;;4959026;28;20238;-94
2022/08/11 09:01:12;;;;;;;3.47;3.17;;;15.40;99.90;;;;;;4958694;28;20218;-95
2022/08/11 09:03:43;;;;;;;4.43;3.00;;;15.40;99.90;;;;;;4958986;28;20227;-94
2022/08/11 09:06:38;;;;;;;5.77;3.47;;;15.40;99.90;;;;;;4958152;28;20296;-94
2022/08/11 09:09:19;;;;;;;3.80;3.40;;;15.40;99.90;;;;;;4961808;28;20226;-94
2022/08/11 09:11:59;;;;;;;5.00;3.53;;;15.40;99.90;;;;;;4971438;28;20220;-94
2022/08/11 09:17:26;;;;;;;4.43;3.30;;;15.40;99.90;;;;;;4960148;29;20711;-95
2022/08/11 09:20:00;;;;;;;7.67;3.50;;;15.30;99.90;;;;;;4956811;28;20218;-95
2022/08/11 09:28:35;;;;;;;4.87;3.57;;;15.30;99.90;;;;;;4977679;28;20215;-95
2022/08/11 09:31:09;;;;;;;6.53;4.10;;;15.30;99.90;;;;;;4958955;28;20552;-94
2022/08/11 09:33:41;;;;;;;5.33;4.17;;;15.30;99.90;;;;;;4960673;29;20662;-95
2022/08/11 09:41:55;;;;;;;4.87;3.27;;;15.10;99.90;;;;;;4959448;28;20231;-94
2022/08/11 09:44:49;;;;;;;3.77;3.30;;;15.10;99.90;;;;;;4957776;29;20218;-94
2022/08/11 09:47:25;;;;;;;4.03;3.40;;;15.00;99.90;;;;;;4958773;28;20263;-94
2022/08/11 09:50:00;;;;;;;4.00;3.60;;;15.00;99.90;;;;;;4961123;28;20208;-95
2022/08/11 09:52:37;;;;;;;10.00;4.07;;;15.10;99.90;;;;;;4954876;28;20270;-94
2022/08/11 09:55:29;;;;;;;6.80;3.80;;;15.10;99.90;;;;;;4961506;28;20235;-95
2022/08/11 09:58:12;;;;;;;6.60;3.90;;;15.10;99.90;;;;;;4961672;28;20243;-94
2022/08/11 10:01:25;;;;;;;6.20;3.60;;;15.20;99.90;;;;;;4961861;28;20207;-96
2022/08/11 10:04:05;;;;;;;4.40;3.47;;;15.30;99.90;;;;;;4961437;28;20286;-94
2022/08/11 10:09:33;;;;;;;6.63;3.50;;;15.50;99.90;;;;;;4964672;28;20207;-94
2022/08/11 10:12:13;;;;;;;5.03;3.50;;;15.60;99.90;;;;;;4972555;28;20219;-94
2022/08/11 10:18:40;;;;;;;5.00;3.60;;;15.80;99.90;;;;;;4961720;28;20235;-95
2022/08/11 10:20:41;;;;;;;6.23;3.43;;;15.90;99.90;;;;;;4961699;28;20207;-94
2022/08/11 10:26:53;;;;;;;5.17;3.33;;;16.00;99.90;;;;;;4961934;28;20218;-95
2022/08/11 10:35:32;;;;;;;4.70;3.20;;;15.90;99.90;;;;;;4961974;28;20227;-94
2022/08/11 10:38:04;;;;;;;4.87;3.13;;;15.90;99.90;;;;;;4963953;28;20259;-94
2022/08/11 10:40:42;;;;;;;5.40;3.30;;;15.90;99.90;;;;;;4973814;28;20191;-94
2022/08/11 10:43:15;;;;;;;5.97;3.53;;;16.00;99.90;;;;;;4957066;28;20207;-94
2022/08/11 10:49:01;;;;;;;3.83;3.50;;;15.70;99.90;;;;;;4961255;28;20215;-94
2022/08/11 11:00:07;;;;;;;5.53;3.40;;;15.80;99.90;;;;;;4963664;28;20212;-94
2022/08/11 11:02:40;;;;;;;4.10;3.30;;;15.80;99.90;;;;;;4960967;28;20220;-94
2022/08/11 11:05:20;;;;;;;3.80;3.43;;;15.80;99.90;;;;;;4964345;28;20211;-94
2022/08/11 11:08:02;;;;;;;4.77;3.40;;;15.80;99.90;;;;;;4962167;28;20238;-93
2022/08/11 11:10:34;;;;;;;3.53;3.20;;;15.80;99.90;;;;;;4963002;28;20223;-94
2022/08/11 11:18:39;;;;;;;5.97;3.33;;;15.70;99.90;;;;;;4969893;28;20282;-94
2022/08/11 11:21:14;;;;;;;5.10;3.40;;;15.60;99.90;;;;;;4974401;29;20216;-95
2022/08/11 11:24:10;;;;;;;4.17;3.60;;;15.50;99.90;;;;;;4978838;28;20207;-94
2022/08/11 11:26:54;;;;;;;4.90;3.80;;;15.50;99.90;;;;;;4978587;28;20223;-93
2022/08/11 11:29:38;;;;;;;3.93;3.20;;;15.40;99.90;;;;;;4978155;28;20203;-95
2022/08/11 11:32:25;;;;;;;6.40;3.73;;;15.40;99.90;;;;;;4975501;29;20204;-93
2022/08/11 11:35:22;;;;;;;6.67;3.67;;;15.30;99.90;;;;;;4974651;28;20207;-94
2022/08/11 11:37:55;;;;;;;5.90;3.80;;;15.20;99.90;;;;;;4965441;28;20271;-94
2022/08/11 11:41:23;;;;;;;6.23;3.57;;;15.20;99.90;;;;;;4967724;28;20247;-94
2022/08/11 11:43:37;;;;;;;4.60;3.27;;;15.20;99.90;;;;;;4976045;28;20200;-94
2022/08/11 11:46:10;;;;;;;4.63;3.33;;;15.10;99.90;;;;;;4971799;29;20252;-94
2022/08/11 11:48:42;;;;;;;4.03;3.43;;;15.10;99.90;;;;;;4965776;28;20232;-94
2022/08/11 11:51:15;;;;;;;4.20;3.63;;;15.10;99.90;;;;;;4972597;28;20215;-94
2022/08/11 11:53:48;;;;;;;5.73;3.87;;;15.00;99.90;;;;;;4977638;28;20219;-94
2022/08/11 11:56:25;;;;;;;3.63;3.33;;;14.90;99.90;;;;;;4973574;29;20204;-92
2022/08/11 12:01:49;;;;;;;5.53;3.40;;;14.80;99.90;;;;;;4965126;28;20263;-94
2022/08/11 12:04:22;;;;;;;5.17;3.50;;;14.80;99.90;;;;;;4962288;28;20207;-94
2022/08/11 12:08:08;;;;;;;6.43;4.10;;;14.70;99.90;;;;;;4962215;28;20224;-94
2022/08/11 12:09:50;;;;;;;6.83;5.00;;;14.60;99.90;;;;;;4961081;28;20666;-94
2022/08/11 12:15:30;;;;;;;8.33;4.90;;;14.50;99.90;;;;;;4972941;28;20203;-95
2022/08/11 12:18:23;;;;;;;9.17;7.10;;;14.50;99.90;;;;;;4965734;28;20705;-96
2022/08/11 12:20:55;;;;;;;11.97;8.27;;;14.50;99.90;;;;;;4961116;28;20208;-96
2022/08/11 12:29:08;;;;;;;11.43;8.00;;;14.50;99.90;;;;;;4961052;28;20215;-95
2022/08/11 12:31:41;;;;;;;10.77;7.97;;;14.50;99.90;;;;;;4960669;28;20211;-96
2022/08/11 12:34:15;;;;;;;12.53;8.37;;;14.50;99.90;;;;;;4960711;28;20740;-95
2022/08/11 12:36:52;;;;;;;13.27;9.33;;;14.50;99.90;;;;;;4960745;28;20219;-95
2022/08/11 12:45:29;;;;;;;11.20;8.27;;;14.40;99.90;;;;;;4965506;28;20243;-94
2022/08/11 12:54:34;;;;;;;10.13;6.80;;;14.30;99.90;;;;;;4962146;28;20218;-94
2022/08/11 13:05:50;;;;;;;7.70;5.70;;;14.30;99.90;;;;;;4962474;28;20283;-94
2022/08/11 13:08:24;;;;;;;8.90;6.00;;;14.30;99.90;;;;;;4960331;28;20215;-94
2022/08/11 13:13:48;;;;;;;7.07;5.30;;;14.30;99.90;;;;;;4960088;28;20229;-94
2022/08/11 13:16:29;;;;;;;6.80;5.07;;;14.30;99.90;;;;;;4959790;28;20215;-94
2022/08/11 13:19:03;;;;;;;7.63;5.60;;;14.30;99.90;;;;;;4959862;28;20251;-94
2022/08/11 13:21:34;;;;;;;9.07;5.37;;;14.30;99.90;;;;;;4959517;28;20638;-95
2022/08/11 13:24:06;;;;;;;7.97;5.20;;;14.30;99.90;;;;;;4959474;29;20207;-95
2022/08/11 13:26:38;;;;;;;7.40;5.60;;;14.20;99.90;;;;;;4959899;28;20595;-94
2022/08/11 13:29:21;;;;;;;7.93;6.00;;;14.20;99.90;;;;;;4963389;29;20282;-94
2022/08/11 13:31:54;;;;;;;5.93;5.33;;;14.30;99.90;;;;;;4962782;29;20258;-94
2022/08/11 13:34:29;;;;;;;7.97;4.97;;;14.30;99.90;;;;;;4963432;29;20231;-95
2022/08/11 13:37:03;;;;;;;8.07;5.33;;;14.40;99.90;;;;;;4962905;29;20553;-94
2022/08/11 13:39:37;;;;;;;8.20;5.07;;;14.40;99.90;;;;;;4962842;28;20298;-94
2022/08/11 13:42:08;;;;;;;6.80;4.93;;;14.50;99.90;;;;;;4962303;28;20215;-95
2022/08/11 13:44:40;;;;;;;7.30;4.63;;;14.50;99.90;;;;;;4965665;28;20215;-94
2022/08/11 13:47:15;;;;;;;5.27;4.60;;;14.70;99.90;;;;;;4964818;28;20282;-94
2022/08/11 13:49:49;;;;;;;6.43;4.70;;;14.80;99.90;;;;;;4962401;28;20653;-94
2022/08/11 13:52:26;;;;;;;6.40;4.17;;;15.00;99.90;;;;;;4961106;29;20211;-94
2022/08/11 13:55:02;;;;;;;7.17;4.10;;;15.10;99.90;;;;;;4961662;29;20207;-94
2022/08/11 13:57:35;;;;;;;5.30;4.47;;;15.30;99.90;;;;;;4961818;29;20234;-94
2022/08/11 14:00:30;;;;;;;5.17;4.10;;;15.40;99.90;;;;;;4962698;28;20239;-94
2022/08/11 14:03:02;;;;;;;6.50;4.23;;;15.50;99.90;;;;;;4962130;28;20234;-95
2022/08/11 14:05:40;;;;;;;6.17;4.27;;;15.60;99.90;;;;;;4962248;28;20848;-95
2022/08/11 14:08:18;;;;;;;4.57;3.73;;;15.70;99.90;;;;;;4962312;28;20214;-95
2022/08/11 14:14:23;;;;;;;5.93;3.47;;;15.80;99.90;;;;;;4964396;28;20246;-95
2022/08/11 14:16:57;;;;;;;5.60;3.17;;;15.80;99.90;;;;;;4962869;28;20211;-92
2022/08/11 14:19:29;;;;;;;5.87;3.70;;;15.90;99.90;;;;;;4961814;28;20230;-95
2022/08/11 14:22:08;;;;;;;5.07;3.00;;;15.90;99.90;;;;;;4961567;28;20669;-94
2022/08/11 14:24:41;;;;;;;3.80;3.33;;;15.90;99.90;;;;;;4961949;28;20266;-94
2022/08/11 14:27:14;;;;;;;6.70;3.67;;;15.90;99.90;;;;;;4962043;28;20212;-94
2022/08/11 14:30:53;;;;;;;5.37;3.37;;;15.80;99.90;;;;;;4962557;28;20219;-94
2022/08/11 14:32:58;;;;;;;5.30;3.60;;;15.80;99.90;;;;;;4961301;28;20215;-95
2022/08/11 14:35:47;;;;;;;5.90;3.40;;;15.80;99.90;;;;;;4962177;28;20215;-95
2022/08/11 14:38:22;;;;;;;3.80;3.07;;;15.80;99.90;;;;;;4961757;28;20288;-94
2022/08/11 14:49:54;;;;;;;4.63;3.50;;;15.80;99.90;;;;;;4960653;28;20633;-94
2022/08/11 14:52:45;;;;;;;6.30;3.77;;;15.90;99.90;;;;;;4962021;28;20204;-94
2022/08/11 14:58:12;;;;;;;3.40;3.00;;;16.00;99.90;;;;;;4964755;28;20212;-95
2022/08/11 15:00:46;;;;;;;7.90;3.27;;;16.10;99.90;;;;;;4964169;28;20230;-94
2022/08/11 15:03:17;;;;;;;4.13;3.17;;;16.20;99.90;;;;;;4964519;28;20212;-95
2022/08/11 15:05:51;;;;;;;9.13;3.93;;;16.20;99.90;;;;;;4972125;28;20204;-96
2022/08/11 15:14:13;;;;;;;4.90;3.30;;;16.60;99.90;;;;;;4978541;28;20202;-95
2022/08/11 15:17:09;;;;;;;5.03;3.03;;;16.80;99.90;;;;;;4971996;28;20290;-96
2022/08/11 15:24:18;;;;;;;3.13;2.77;;;16.90;99.90;;;;;;4961597;28;20235;-95
2022/08/11 15:25:24;;;;;;;3.27;2.53;;;17.10;99.90;;;;;;4965399;28;20250;-94
2022/08/11 15:39:23;;;;;;;8.40;3.43;;;18.30;99.90;;;;;;4963213;28;20227;-94
2022/08/11 15:47:56;;;;;;;6.07;2.80;;;18.60;99.90;;;;;;4961033;28;20207;-95
2022/08/11 15:50:40;;;;;;;5.60;3.00;;;18.50;99.90;;;;;;4959379;28;20274;-94
2022/08/11 15:53:19;;;;;;;4.33;2.63;;;18.60;99.90;;;;;;4959660;28;20211;-94
2022/08/11 15:55:51;;;;;;;4.77;2.77;;;18.60;99.90;;;;;;4960352;28;20230;-95
2022/08/11 16:04:13;;;;;;;4.90;2.90;;;18.60;99.90;;;;;;4960233;28;20226;-94
2022/08/11 16:06:51;;;;;;;4.17;2.33;;;18.60;99.90;;;;;;4960161;28;20587;-95
2022/08/11 16:09:31;;;;;;;4.27;2.53;;;18.60;99.90;;;;;;4960019;28;20223;-95
2022/08/11 16:12:21;;;;;;;3.03;2.60;;;18.60;99.90;;;;;;4959246;28;20283;-95
2022/08/11 16:17:57;;;;;;;3.80;2.60;;;18.80;99.90;;;;;;4959509;28;20706;-95
2022/08/11 16:20:30;;;;;;;5.13;2.97;;;18.90;99.90;;;;;;4959864;28;20294;-95
2022/08/11 16:23:05;;;;;;;6.40;3.03;;;19.00;99.90;;;;;;4959144;28;20240;-95
2022/08/11 16:25:37;;;;;;;3.07;2.33;;;19.00;99.90;;;;;;4960295;28;20230;-94
2022/08/11 16:28:32;;;;;;;4.50;2.30;;;19.20;99.90;;;;;;4958883;28;20231;-94
2022/08/11 16:31:11;;;;;;;3.33;2.00;;;19.20;99.90;;;;;;4962224;28;20353;-96
2022/08/11 16:33:46;;;;;;;2.20;2.00;;;19.30;99.90;;;;;;4961925;28;20725;-95
2022/08/11 16:39:17;;;;;;;3.07;2.30;;;19.40;99.90;;;;;;4965912;28;20211;-94
2022/08/11 16:47:48;;;;;;;2.30;1.70;;;19.70;99.90;;;;;;4974726;28;20235;-95
2022/08/11 16:50:43;;;;;;;3.80;1.90;;;19.80;99.90;;;;;;4978152;28;20235;-96
2022/08/11 16:53:16;;;;;;;2.93;1.60;;;19.80;99.90;;;;;;4977245;28;20210;-95
2022/08/11 16:55:50;;;;;;;2.13;1.43;;;19.90;99.90;;;;;;4978402;28;20286;-95
2022/08/11 17:01:16;;;;;;;2.67;1.63;;;20.10;99.90;;;;;;4977353;28;20254;-95
2022/08/11 17:13:14;;;;;;;2.40;2.00;;;20.50;99.90;;;;;;4977942;28;20199;-95
2022/08/11 17:16:10;;;;;;;5.83;2.30;;;20.40;99.90;;;;;;4976467;28;20222;-94
2022/08/11 17:18:49;;;;;;;2.13;1.60;;;20.50;99.90;;;;;;4962302;29;20267;-96
2022/08/11 17:21:25;;;;;;;3.03;1.90;;;20.40;99.90;;;;;;4961665;28;20247;-96
2022/08/11 17:24:04;;;;;;;3.93;1.83;;;20.50;99.90;;;;;;4961784;29;20254;-95
2022/08/11 17:26:57;;;;;;;3.23;2.03;;;20.60;99.90;;;;;;4960861;29;20713;-95
2022/08/11 17:29:33;;;;;;;3.33;2.03;;;20.60;99.90;;;;;;4961211;29;20216;-96
2022/08/11 17:35:34;;;;;;;3.33;2.30;;;20.80;99.90;;;;;;4959279;28;20207;-96
2022/08/11 17:38:08;;;;;;;3.90;2.10;;;20.80;99.90;;;;;;4960493;29;20278;-95
2022/08/11 17:48:24;;;;;;;3.27;2.27;;;20.90;99.90;;;;;;4962910;28;20250;-96
2022/08/11 17:49:14;;;;;;;2.57;2.23;;;20.80;99.90;;;;;;4961292;29;20236;-95
2022/08/11 18:00:19;;;;;;;3.40;2.27;;;21.10;99.90;;;;;;4961541;28;20235;-96
2022/08/11 18:05:44;;;;;;;4.43;2.30;;;21.40;99.90;;;;;;4962224;29;20212;-95
